createdAt,value
2018-07-21T00:01:15.630Z,21.11
2018-07-21T00:03:56.890Z,21.01
2018-07-21T00:06:30.027Z,20.34
2018-07-21T00:09:08.367Z,20.34
2018-07-21T00:14:23.210Z,20.18
2018-07-21T00:17:00.419Z,20.21
2018-07-21T00:19:31.818Z,20.51
2018-07-21T00:22:01.188Z,20.67
2018-07-21T00:24:36.843Z,20.90
2018-07-21T00:27:08.772Z,21.04
2018-07-21T00:29:38.330Z,21.00
2018-07-21T00:32:14.284Z,20.89
2018-07-21T00:34:55.894Z,21.13
2018-07-21T00:37:25.404Z,20.65
2018-07-21T00:40:06.690Z,20.21
2018-07-21T00:42:35.986Z,20.27
2018-07-21T00:45:09.362Z,20.15
2018-07-21T00:47:45.728Z,20.03
2018-07-21T00:50:23.828Z,20.62
2018-07-21T00:52:54.827Z,20.91
2018-07-21T00:55:26.075Z,20.71
2018-07-21T00:58:01.327Z,20.73
2018-07-21T01:03:33.988Z,20.50
2018-07-21T01:06:13.576Z,20.57
2018-07-21T01:08:54.114Z,20.61
2018-07-21T01:11:40.590Z,20.69
2018-07-21T01:14:23.011Z,20.72
2018-07-21T01:17:00.458Z,20.12
2018-07-21T01:19:43.734Z,20.27
2018-07-21T01:22:19.463Z,20.75
2018-07-21T02:11:59.769Z,20.53
2018-07-21T02:15:01.057Z,20.65
2018-07-21T02:23:41.554Z,20.69
2018-07-21T02:26:34.161Z,20.56
2018-07-21T02:29:09.053Z,20.06
2018-07-21T02:31:39.402Z,19.93
2018-07-21T02:34:24.921Z,20.13
2018-07-21T02:37:02.307Z,20.41
2018-07-21T02:39:39.405Z,20.60
2018-07-21T02:42:14.863Z,20.43
2018-07-21T02:44:47.001Z,20.04
2018-07-21T02:47:26.121Z,20.04
2018-07-21T02:50:02.688Z,20.29
2018-07-21T02:55:45.258Z,19.90
2018-07-21T02:58:38.847Z,19.46
2018-07-21T03:01:17.723Z,17.60
2018-07-21T03:03:59.738Z,19.55
2018-07-21T03:09:35.191Z,18.88
2018-07-21T03:12:57.158Z,18.83
2018-07-21T03:15:46.252Z,19.48
2018-07-21T03:21:14.830Z,19.68
2018-07-21T03:59:04.926Z,18.86
2018-07-21T04:27:11.801Z,19.50
2018-07-21T04:47:39.882Z,19.63
2018-07-21T04:53:19.774Z,19.76
2018-07-21T04:55:57.505Z,19.83
2018-07-21T04:58:35.293Z,19.78
2018-07-21T05:01:47.567Z,20.08
2018-07-21T05:04:35.068Z,20.13
2018-07-21T05:13:00.301Z,20.29
2018-07-21T05:15:49.709Z,20.37
2018-07-21T05:18:25.269Z,20.32
2018-07-21T05:21:03.280Z,20.11
2018-07-21T05:27:18.788Z,19.88
2018-07-21T05:29:54.810Z,19.96
2018-07-21T05:32:27.222Z,19.81
2018-07-21T05:34:58.288Z,19.99
2018-07-21T05:37:29.017Z,20.24
2018-07-21T05:40:01.688Z,20.43
2018-07-21T05:42:37.316Z,20.38
2018-07-21T05:45:13.938Z,20.12
2018-07-21T05:47:48.731Z,19.62
2018-07-21T05:50:27.639Z,19.92
2018-07-21T05:59:47.370Z,19.55
2018-07-21T06:02:32.959Z,19.25
2018-07-21T06:05:14.829Z,19.01
2018-07-21T06:07:54.259Z,19.04
2018-07-21T06:10:33.447Z,19.61
2018-07-21T06:13:05.552Z,19.90
2018-07-21T06:15:43.454Z,19.84
2018-07-21T06:18:23.288Z,20.14
2018-07-21T06:20:52.663Z,20.18
2018-07-21T06:23:25.554Z,20.07
2018-07-21T06:25:54.704Z,20.57
2018-07-21T06:28:24.473Z,20.58
2018-07-21T06:30:55.958Z,20.66
2018-07-21T06:33:29.819Z,20.78
2018-07-21T06:36:00.500Z,20.30
2018-07-21T06:38:46.178Z,20.12
2018-07-21T06:41:20.142Z,20.54
2018-07-21T06:43:57.221Z,20.72
2018-07-21T06:46:34.998Z,20.58
2018-07-21T06:49:06.628Z,20.63
2018-07-21T06:51:44.090Z,20.65
2018-07-21T06:54:15.271Z,20.59
2018-07-21T06:56:50.949Z,20.22
2018-07-21T06:59:28.865Z,20.52
2018-07-21T07:02:09.299Z,20.49
2018-07-21T07:04:48.318Z,20.78
2018-07-21T07:07:45.404Z,20.91
2018-07-21T07:10:22.453Z,21.00
2018-07-21T07:12:54.816Z,20.79
2018-07-21T07:15:29.033Z,20.59
2018-07-21T07:20:55.279Z,20.76
2018-07-21T07:30:24.813Z,20.83
2018-07-21T07:32:58.230Z,21.26
2018-07-21T07:35:28.176Z,21.39
2018-07-21T07:37:59.504Z,21.29
2018-07-21T07:40:36.806Z,21.31
2018-07-21T07:43:15.677Z,21.52
2018-07-21T07:45:46.745Z,21.28
2018-07-21T07:48:22.614Z,21.42
2018-07-21T07:50:52.759Z,21.50
2018-07-21T07:53:29.642Z,21.61
2018-07-21T07:55:59.308Z,21.88
2018-07-21T07:58:32.223Z,22.12
2018-07-21T08:01:01.930Z,21.97
2018-07-21T08:03:33.809Z,22.29
2018-07-21T08:06:08.410Z,22.18
2018-07-21T08:08:39.662Z,22.69
2018-07-21T08:11:10.143Z,22.61
2018-07-21T08:13:44.578Z,22.49
2018-07-21T08:16:19.801Z,22.50
2018-07-21T08:18:49.790Z,22.65
2018-07-21T08:22:34.204Z,22.94
2018-07-21T08:25:11.345Z,23.25
2018-07-21T08:31:00.291Z,22.57
2018-07-21T08:33:47.795Z,23.65
2018-07-21T08:36:24.118Z,23.35
2018-07-21T08:39:00.683Z,23.30
2018-07-21T08:41:32.642Z,24.03
2018-07-21T08:44:04.692Z,23.84
2018-07-21T08:46:41.321Z,23.89
2018-07-21T08:49:21.872Z,24.10
2018-07-21T08:51:51.853Z,23.82
2018-07-21T08:54:22.908Z,23.73
2018-07-21T08:56:56.794Z,23.92
2018-07-21T09:02:21.207Z,23.98
2018-07-21T09:05:02.029Z,23.98
2018-07-21T09:07:32.566Z,23.78
2018-07-21T09:10:12.761Z,23.86
2018-07-21T09:12:47.650Z,24.15
2018-07-21T09:15:27.071Z,23.77
2018-07-21T09:18:17.000Z,23.66
2018-07-21T09:20:54.604Z,23.41
2018-07-21T09:23:26.579Z,23.33
2018-07-21T09:26:00.232Z,23.21
2018-07-21T09:28:33.177Z,23.76
2018-07-21T09:31:13.240Z,24.06
2018-07-21T09:33:48.294Z,23.63
2018-07-21T09:36:28.229Z,23.84
2018-07-21T09:39:14.736Z,23.58
2018-07-21T09:42:02.911Z,23.55
2018-07-21T09:44:44.580Z,23.27
2018-07-21T09:47:21.140Z,23.23
2018-07-21T09:49:57.637Z,23.43
2018-07-21T09:52:37.288Z,23.04
2018-07-21T09:55:09.251Z,23.47
2018-07-21T09:57:47.663Z,23.35
2018-07-21T10:00:29.797Z,23.40
2018-07-21T10:03:00.441Z,23.53
2018-07-21T10:05:35.963Z,23.53
2018-07-21T10:08:07.262Z,23.88
2018-07-21T10:10:42.739Z,23.78
2018-07-21T10:13:23.111Z,23.47
2018-07-21T10:20:11.741Z,23.80
2018-07-21T10:22:53.647Z,23.89
2018-07-21T10:27:12.627Z,24.40
2018-07-21T10:30:01.873Z,24.95
2018-07-21T10:32:32.965Z,24.61
2018-07-21T10:35:01.705Z,24.53
2018-07-21T10:50:34.278Z,24.71
2018-07-21T10:54:05.410Z,24.45
2018-07-21T10:59:25.743Z,24.60
2018-07-21T11:07:09.357Z,24.80
2018-07-21T11:09:47.220Z,24.59
2018-07-21T11:12:20.025Z,24.63
2018-07-21T11:14:50.725Z,24.72
2018-07-21T11:17:21.212Z,24.86
2018-07-21T11:19:50.272Z,24.45
2018-07-21T11:22:34.679Z,24.26
2018-07-21T11:25:10.792Z,24.40
2018-07-21T11:27:47.805Z,24.65
2018-07-21T11:30:33.164Z,24.77
2018-07-21T11:33:05.407Z,25.46
2018-07-21T11:35:54.483Z,25.19
2018-07-21T11:38:27.639Z,25.33
2018-07-21T11:40:57.301Z,25.35
2018-07-21T11:43:36.435Z,25.82
2018-07-21T11:46:05.603Z,25.80
2018-07-21T11:48:36.590Z,26.00
2018-07-21T11:54:02.303Z,26.30
2018-07-21T11:56:33.580Z,25.70
2018-07-21T11:59:04.452Z,26.33
2018-07-21T12:01:37.710Z,26.11
2018-07-21T12:04:08.178Z,25.98
2018-07-21T12:06:44.332Z,25.70
2018-07-21T12:09:14.617Z,26.14
2018-07-21T12:11:47.827Z,26.02
2018-07-21T12:14:27.041Z,25.64
2018-07-21T12:16:56.706Z,25.81
2018-07-21T13:03:22.379Z,26.74
2018-07-21T13:19:06.820Z,27.33
2018-07-21T13:21:57.736Z,27.17
2018-07-21T13:24:42.993Z,27.22
2018-07-21T13:27:15.263Z,26.89
2018-07-21T13:30:04.900Z,26.70
2018-07-21T16:22:11.099Z,25.97
2018-07-21T16:24:39.750Z,26.17
2018-07-21T16:27:08.261Z,26.15
2018-07-21T16:29:36.741Z,26.46
2018-07-21T16:32:05.250Z,26.51
2018-07-21T16:34:33.670Z,26.40
2018-07-21T16:37:02.180Z,26.54
2018-07-21T16:39:30.584Z,26.82
2018-07-21T16:41:59.810Z,26.73
2018-07-21T16:44:28.214Z,26.52
2018-07-21T16:46:56.631Z,26.53
2018-07-21T16:49:26.097Z,26.26
2018-07-21T16:51:54.594Z,26.15
2018-07-21T16:54:23.152Z,25.67
2018-07-21T16:56:51.577Z,25.80
2018-07-21T16:59:20.112Z,25.49
2018-07-21T17:01:49.866Z,25.50
2018-07-21T17:04:19.510Z,25.26
2018-07-21T17:27:40.660Z,24.62
2018-07-21T17:30:09.607Z,21.21
2018-07-21T17:32:38.415Z,20.69
2018-07-21T17:35:07.138Z,20.19
2018-07-21T17:37:38.550Z,19.54
2018-07-21T17:40:07.077Z,19.02
2018-07-21T17:42:37.168Z,18.78
2018-07-21T17:45:07.092Z,18.34
2018-07-21T17:47:36.879Z,18.21
2018-07-21T17:50:05.798Z,17.91
2018-07-21T17:52:34.309Z,17.81
2018-07-21T17:55:02.878Z,17.64
2018-07-21T17:57:31.386Z,17.54
2018-07-21T18:00:00.129Z,17.51
2018-07-21T18:02:28.740Z,17.37
2018-07-21T18:04:57.566Z,17.48
2018-07-21T18:07:26.686Z,17.25
2018-07-21T18:09:55.214Z,17.24
2018-07-21T18:12:24.621Z,17.29
2018-07-21T18:14:53.600Z,17.44
2018-07-21T18:17:22.078Z,17.61
2018-07-21T18:19:50.515Z,17.79
2018-07-21T18:22:18.934Z,17.68
2018-07-21T18:24:47.551Z,17.64
2018-07-21T18:27:16.070Z,17.61
2018-07-21T18:29:48.722Z,17.62
2018-07-21T18:32:17.170Z,17.69
2018-07-21T18:34:45.902Z,17.85
2018-07-21T18:37:16.123Z,18.10
2018-07-21T18:39:44.592Z,18.21
2018-07-21T18:42:13.961Z,18.31
2018-07-21T18:44:42.437Z,18.07
2018-07-21T18:47:11.332Z,17.99
2018-07-21T18:49:39.870Z,17.96
2018-07-21T18:52:08.454Z,17.77
2018-07-21T18:54:36.931Z,18.01
2018-07-21T18:57:05.724Z,18.06
2018-07-21T18:59:34.883Z,18.18
2018-07-21T19:02:03.341Z,17.84
2018-07-21T19:04:32.625Z,17.83
2018-07-21T19:07:01.067Z,17.96
2018-07-21T19:09:29.943Z,17.96
2018-07-21T19:12:04.170Z,17.82
2018-07-21T19:14:32.952Z,17.69
2018-07-21T19:17:02.307Z,17.82
2018-07-21T19:19:36.452Z,17.96
2018-07-21T19:22:04.953Z,17.97
2018-07-21T19:24:33.465Z,17.83
2018-07-21T19:27:07.951Z,17.95
2018-07-21T19:29:36.840Z,18.13
2018-07-21T19:32:11.342Z,17.98
2018-07-21T19:34:40.126Z,18.31
2018-07-21T19:37:15.037Z,18.25
2018-07-21T19:39:44.027Z,18.34
2018-07-21T19:42:13.609Z,18.57
2018-07-21T19:44:42.021Z,18.66
2018-07-21T19:47:11.259Z,18.98
2018-07-21T19:49:40.784Z,19.03
2018-07-21T19:52:09.238Z,18.77
2018-07-21T19:54:37.673Z,18.90
2018-07-21T19:57:06.952Z,18.69
2018-07-21T19:59:35.453Z,18.42
2018-07-21T20:02:03.954Z,18.44
2018-07-21T20:04:32.394Z,18.38
2018-07-21T20:07:01.168Z,18.47
2018-07-21T20:09:31.337Z,18.28
2018-07-21T20:12:00.499Z,18.04
2018-07-21T20:14:31.214Z,17.81
2018-07-21T20:16:59.903Z,17.52
2018-07-21T20:19:32.751Z,17.71
2018-07-21T20:22:01.971Z,17.66
2018-07-21T20:24:31.456Z,17.86
2018-07-21T20:27:00.211Z,17.65
2018-07-21T20:29:29.146Z,17.81
2018-07-21T20:31:57.573Z,17.74
2018-07-21T20:34:25.986Z,17.84
2018-07-21T20:36:55.291Z,17.99
2018-07-21T20:39:25.453Z,17.71
2018-07-21T20:41:55.287Z,17.71
2018-07-21T20:44:23.723Z,17.58
2018-07-21T20:46:52.448Z,17.63
2018-07-21T20:49:23.131Z,17.67
2018-07-21T20:51:52.209Z,17.77
2018-07-21T20:54:21.683Z,17.52
2018-07-21T20:56:51.211Z,17.71
2018-07-21T20:59:21.138Z,17.84
2018-07-21T21:01:49.926Z,18.00
2018-07-21T21:04:18.611Z,17.84
2018-07-21T21:06:48.691Z,17.88
2018-07-21T21:09:17.769Z,17.98
2018-07-21T21:11:47.280Z,18.09
2018-07-21T21:14:20.126Z,18.14
2018-07-21T21:16:49.811Z,17.99
2018-07-21T21:19:19.283Z,17.95
2018-07-21T21:21:49.130Z,17.84
2018-07-21T21:24:19.238Z,17.92
2018-07-21T21:26:47.706Z,17.56
2018-07-21T21:29:16.835Z,17.58
2018-07-21T21:31:46.846Z,17.56
2018-07-21T21:34:15.819Z,17.28
2018-07-21T21:36:44.590Z,17.22
2018-07-21T21:39:13.831Z,17.13
2018-07-21T21:41:42.752Z,17.05
2018-07-21T21:44:11.462Z,16.92
2018-07-21T21:46:40.266Z,17.03
2018-07-21T21:49:10.017Z,17.24
2018-07-21T21:51:39.456Z,17.34
2018-07-21T21:54:09.114Z,17.70
2018-07-21T21:56:37.805Z,17.45
2018-07-21T21:59:10.024Z,17.66
2018-07-21T22:01:38.439Z,17.58
2018-07-21T22:04:13.113Z,17.64
2018-07-21T22:06:43.237Z,17.70
2018-07-21T22:09:12.308Z,17.65
2018-07-21T22:11:41.973Z,17.71
2018-07-21T22:14:10.639Z,17.68
2018-07-21T22:16:41.148Z,17.37
2018-07-21T22:19:10.398Z,17.42
2018-07-21T22:21:39.208Z,17.48
2018-07-21T22:24:08.794Z,17.27
2018-07-21T22:26:37.864Z,17.13
2018-07-21T22:29:06.551Z,17.18
2018-07-21T22:31:35.633Z,17.12
2018-07-21T22:34:05.229Z,17.22
2018-07-21T22:36:35.346Z,16.96
2018-07-21T22:39:08.315Z,16.91
2018-07-21T22:41:39.607Z,16.95
2018-07-21T22:44:08.901Z,17.19
2018-07-21T22:46:38.373Z,17.12
2018-07-21T22:49:06.898Z,17.09
2018-07-21T22:51:37.425Z,17.09
2018-07-21T22:54:09.559Z,16.89
2018-07-21T22:56:37.931Z,16.92
2018-07-21T22:59:06.969Z,16.83
2018-07-21T23:01:35.490Z,16.85
2018-07-21T23:04:03.965Z,16.91
2018-07-21T23:06:32.323Z,16.98
2018-07-21T23:09:02.248Z,16.99
2018-07-21T23:11:31.622Z,17.07
2018-07-21T23:14:01.328Z,17.20
2018-07-21T23:16:30.774Z,16.92
2018-07-21T23:19:00.257Z,17.07
2018-07-21T23:21:34.818Z,17.30
2018-07-21T23:24:04.034Z,17.12
2018-07-21T23:26:32.879Z,17.16
2018-07-21T23:29:01.423Z,17.04
2018-07-21T23:31:30.691Z,17.13
2018-07-21T23:34:00.893Z,17.07
2018-07-21T23:36:31.124Z,17.13
2018-07-21T23:38:59.628Z,17.10
2018-07-21T23:41:28.638Z,17.17
2018-07-21T23:43:57.826Z,17.19
2018-07-21T23:46:26.564Z,17.18
2018-07-21T23:49:29.547Z,17.22
2018-07-21T23:51:58.529Z,17.27
2018-07-21T23:54:27.622Z,17.32
2018-07-21T23:56:56.050Z,17.28
2018-07-21T23:59:26.445Z,17.31
